Capitol Logistics 3275


MYNN
Lynden Pindling International Airport
Nassau, BS
MBPV
Providenciales International Airport
Providenciales, TC

Activity Log

Date Flight Route Aircraft Duration
10/12/2019 CPX675 ZQA A555 MICAS G648 PVN SF34 2h 27m
09/04/2019 CPX675 CUDLI HIDGY DUNNO ACMEE WRECK SOLEI TROTR BENOS EMUSO SF34 1h 54m
08/21/2019 CPX675 ZQA A555 MICAS G648 PVN SF34 1h 35m

Route Details

Aircraft Information
Primary: Saab 340AF
Backup: Not Available
Route Data
Distance: 347nm
Sched. Duration: 2h 10m
Avg. Duration: 1h 72m (-38m)
Times Flown: 3
Recm'd Route: ZQA A555 MICAS G648 PVN
Planned Altitude: 16,000ft
Origin Wx: MYNN 311300Z 23004KT 9999 BKN022 24/21 A3000
Dest. Wx: MBPV 311400Z 14005KT 9999 SCT012 27/19 Q1013
Notes:

Financial History
Total Freight: 18,530lbs
Average Load: 6,177lbs/flt
Fuel Used: 5,046lbs
Avg. Fuel Used: 1,682lbs/flt
Fuel Expense: $4,895
Avg. Fuel Expense: $1,632
Avg. Fuel Cost: $0.97/lbs
Total Gross Income: $20,754
Pilot Pay: $687
Total Expenses: $2,397
Total Revenue: $11,995
Average Revenue: $6,917.87